Dades meteomassalio
Diari Summary for Diciembre 2, 2017 Units:  Metric    English   Both
« Previous Day
Next Day »
Diari Semanal Mensual Anual Personalitzat
  Maxima: Minima: Mijana:
Temperatura: 8.3 °C 1.1 °C 3.4 °C
Rosada: -0.7 °C -5.9 °C -3.3 °C
Humitat: 81 % 36 % 63 %
Velocitat del vent: 62.9 km/h 20.4 km/h 39.4 km/h
Racha vent: 62.9 km/h - -
Vent:- - WNW
Pressio: 1025.3 hPa 1019.2 hPa -
Pluja: 0.0 mm    
Historical Graphs
 
 
Tabular Data for Diciembre 2, 2017
Time Temperature Dew Point Pressure Wind Wind Speed Wind Gust Humidity Rainfall Rate (Hourly) solar Conditions
00:02 1.7 °C -2.7 °C 1021.6 hPa NNW 37.0 km/h 37.0 km/h 73 % 0.0 mm 0.0 W/m2 RA
00:07 1.7 °C -2.5 °C 1021.6 hPa NW 50.0 km/h 50.0 km/h 74 % 0.0 mm 0.0 W/m2 CLR
00:12 2.2 °C -1.9 °C 1021.2 hPa NNW 46.3 km/h 46.3 km/h 74 % 0.0 mm 0.0 W/m2 CLR
00:17 2.2 °C -2.1 °C 1021.2 hPa NNW 31.5 km/h 31.5 km/h 73 % 0.0 mm 0.0 W/m2 CLR
00:23 2.2 °C -1.9 °C 1021.2 hPa NNW 40.7 km/h 40.7 km/h 74 % 0.0 mm 0.0 W/m2 CLR
00:28 2.2 °C -1.9 °C 1021.2 hPa NNW 45.1 km/h 45.1 km/h 74 % 0.0 mm 0.0 W/m2 CLR
00:33 1.7 °C -2.5 °C 1021.2 hPa NNW 33.8 km/h 33.8 km/h 74 % 0.0 mm 0.0 W/m2 CLR
00:43 1.7 °C -2.3 °C 1021.2 hPa NW 35.2 km/h 35.2 km/h 75 % 0.0 mm 0.0 W/m2 CLR
00:48 1.7 °C -2.5 °C 1021.2 hPa NW 31.5 km/h 31.5 km/h 74 % 0.0 mm 0.0 W/m2 CLR
01:03 1.7 °C -2.5 °C 1021.2 hPa NNW 37.0 km/h 37.0 km/h 74 % 0.0 mm 0.0 W/m2 CLR
01:08 1.7 °C -2.5 °C 1021.2 hPa North 31.5 km/h 31.5 km/h 74 % 0.0 mm 0.0 W/m2 CLR
01:13 1.7 °C -2.5 °C 1021.2 hPa NNW 24.1 km/h 24.1 km/h 74 % 0.0 mm 0.0 W/m2 CLR
01:18 1.7 °C -2.5 °C 1021.6 hPa NW 33.3 km/h 33.3 km/h 74 % 0.0 mm 0.0 W/m2 CLR
01:23 1.7 °C -2.5 °C 1021.6 hPa NW 31.5 km/h 31.5 km/h 74 % 0.0 mm 0.0 W/m2 CLR
01:28 1.7 °C -2.5 °C 1021.2 hPa NNW 33.3 km/h 33.3 km/h 74 % 0.0 mm 0.0 W/m2 CLR
01:33 1.7 °C -2.5 °C 1021.2 hPa NW 24.1 km/h 24.1 km/h 74 % 0.0 mm 0.0 W/m2 CLR
01:43 2.2 °C -1.9 °C 1021.2 hPa North 42.6 km/h 42.6 km/h 74 % 0.0 mm 0.0 W/m2 CLR
01:53 2.2 °C -1.8 °C 1021.2 hPa NNW 37.0 km/h 37.0 km/h 75 % 0.0 mm 0.0 W/m2 CLR
01:58 2.2 °C -1.8 °C 1021.2 hPa NNW 35.2 km/h 35.2 km/h 75 % 0.0 mm 0.0 W/m2 CLR
02:03 2.2 °C -1.9 °C 1021.2 hPa NNW 25.9 km/h 25.9 km/h 74 % 0.0 mm 0.0 W/m2 CLR
02:08 2.2 °C -1.8 °C 1021.2 hPa NNW 29.6 km/h 29.6 km/h 75 % 0.0 mm 0.0 W/m2 CLR
02:13 2.2 °C -1.8 °C 1021.2 hPa NNW 30.6 km/h 30.6 km/h 75 % 0.0 mm 0.0 W/m2 CLR
02:18 2.2 °C -1.8 °C 1021.2 hPa NW 22.2 km/h 22.2 km/h 75 % 0.0 mm 0.0 W/m2 CLR
02:23 1.7 °C -2.3 °C 1021.2 hPa NNW 29.6 km/h 29.6 km/h 75 % 0.0 mm 0.0 W/m2 CLR
02:28 2.2 °C -1.8 °C 1021.2 hPa NNW 22.5 km/h 22.5 km/h 75 % 0.0 mm 0.0 W/m2 CLR
02:33 2.2 °C -1.6 °C 1021.2 hPa NNW 35.2 km/h 35.2 km/h 76 % 0.0 mm 0.0 W/m2 CLR
02:38 2.2 °C -1.6 °C 1021.2 hPa NNW 29.6 km/h 29.6 km/h 76 % 0.0 mm 0.0 W/m2 CLR
02:43 2.2 °C -1.6 °C 1021.2 hPa NNW 38.9 km/h 38.9 km/h 76 % 0.0 mm 0.0 W/m2 CLR
02:53 2.2 °C -1.4 °C 1020.9 hPa NNW 25.9 km/h 25.9 km/h 77 % 0.0 mm 0.0 W/m2 CLR
02:58 2.2 °C -1.4 °C 1020.9 hPa North 27.4 km/h 27.4 km/h 77 % 0.0 mm 0.0 W/m2 CLR
03:03 2.2 °C -1.4 °C 1020.9 hPa NNW 40.7 km/h 40.7 km/h 77 % 0.0 mm 0.0 W/m2 CLR
03:08 2.2 °C -1.2 °C 1020.9 hPa NNW 29.6 km/h 29.9 km/h 78 % 0.0 mm 0.0 W/m2 CLR
03:13 2.2 °C -1.2 °C 1020.9 hPa NNW 40.7 km/h 40.7 km/h 78 % 0.0 mm 0.0 W/m2 CLR
03:18 2.2 °C -1.4 °C 1020.9 hPa NNW 33.8 km/h 33.8 km/h 77 % 0.0 mm 0.0 W/m2 CLR
03:23 2.2 °C -1.4 °C 1020.5 hPa NNW 33.3 km/h 33.3 km/h 77 % 0.0 mm 0.0 W/m2 CLR
03:28 2.2 °C -1.2 °C 1020.5 hPa North 38.9 km/h 38.9 km/h 78 % 0.0 mm 0.0 W/m2 CLR
03:33 2.2 °C -1.4 °C 1020.5 hPa North 38.9 km/h 38.9 km/h 77 % 0.0 mm 0.0 W/m2 CLR
03:39 2.2 °C -1.4 °C 1020.5 hPa North 40.7 km/h 40.7 km/h 77 % 0.0 mm 0.0 W/m2 CLR
03:44 2.8 °C -0.8 °C 1020.5 hPa NNW 40.7 km/h 40.7 km/h 77 % 0.0 mm 0.0 W/m2 CLR
03:49 2.8 °C -0.8 °C 1020.5 hPa North 35.4 km/h 35.4 km/h 77 % 0.0 mm 0.0 W/m2 CLR
03:50 2.8 °C -0.8 °C 1020.5 hPa North 31.5 km/h 31.5 km/h 77 % 0.0 mm 0.0 W/m2 CLR
04:00 2.2 °C -1.2 °C 1020.5 hPa North 41.8 km/h 41.8 km/h 78 % 0.0 mm 0.0 W/m2 CLR
04:05 2.2 °C -1.1 °C 1020.5 hPa North 31.5 km/h 31.5 km/h 79 % 0.0 mm 0.0 W/m2 CLR
04:10 2.2 °C -0.9 °C 1020.2 hPa NNW 41.8 km/h 41.8 km/h 80 % 0.0 mm 0.0 W/m2 CLR
04:15 2.2 °C -0.9 °C 1020.2 hPa NNW 40.2 km/h 40.2 km/h 80 % 0.0 mm 0.0 W/m2 CLR
04:20 2.2 °C -0.9 °C 1020.2 hPa NW 42.6 km/h 42.6 km/h 80 % 0.0 mm 0.0 W/m2 CLR
04:24 2.2 °C -0.9 °C 1020.2 hPa NNW 35.2 km/h 35.2 km/h 80 % 0.0 mm 0.0 W/m2 CLR
04:25 2.2 °C -0.7 °C 1020.2 hPa NW 37.0 km/h 37.0 km/h 81 % 0.0 mm 0.0 W/m2 CLR
04:27 2.2 °C -0.7 °C 1020.2 hPa NNW 43.4 km/h 43.4 km/h 81 % 0.0 mm 0.0 W/m2 CLR
04:30 2.2 °C -0.7 °C 1020.2 hPa NNW 48.1 km/h 48.1 km/h 81 % 0.0 mm 0.0 W/m2 CLR
04:35 2.2 °C -0.7 °C 1020.2 hPa NW 35.2 km/h 35.2 km/h 81 % 0.0 mm 0.0 W/m2 CLR
04:45 1.7 °C -1.2 °C 1020.2 hPa NNW 35.4 km/h 35.4 km/h 81 % 0.0 mm 0.0 W/m2 CLR
04:50 2.2 °C -0.9 °C 1020.2 hPa NNW 33.8 km/h 33.8 km/h 80 % 0.0 mm 0.0 W/m2 CLR
04:55 2.2 °C -0.9 °C 1019.9 hPa NNW 38.9 km/h 38.9 km/h 80 % 0.0 mm 0.0 W/m2 CLR
05:00 2.2 °C -0.9 °C 1020.2 hPa NNW 42.6 km/h 42.6 km/h 80 % 0.0 mm 0.0 W/m2 CLR
05:10 2.2 °C -0.9 °C 1020.2 hPa NNW 38.9 km/h 38.9 km/h 80 % 0.0 mm 0.0 W/m2 CLR
05:20 2.2 °C -0.9 °C 1020.2 hPa North 31.5 km/h 31.5 km/h 80 % 0.0 mm 0.0 W/m2 CLR
05:25 2.2 °C -0.9 °C 1020.2 hPa NNW 29.6 km/h 29.6 km/h 80 % 0.0 mm 0.0 W/m2 CLR
05:30 2.2 °C -0.9 °C 1020.2 hPa NNW 29.6 km/h 29.6 km/h 80 % 0.0 mm 0.0 W/m2 CLR
05:35 2.2 °C -0.9 °C 1020.2 hPa North 40.7 km/h 40.7 km/h 80 % 0.0 mm 0.0 W/m2 CLR
05:40 2.2 °C -0.9 °C 1020.2 hPa NNW 42.6 km/h 42.6 km/h 80 % 0.0 mm 0.0 W/m2 CLR
05:45 2.2 °C -0.9 °C 1020.5 hPa North 27.8 km/h 27.8 km/h 80 % 0.0 mm 0.0 W/m2 CLR
05:50 2.2 °C -0.9 °C 1020.5 hPa North 38.9 km/h 38.9 km/h 80 % 0.0 mm 0.0 W/m2 CLR
05:55 2.2 °C -1.1 °C 1020.2 hPa NNW 35.2 km/h 35.2 km/h 79 % 0.0 mm 0.0 W/m2 CLR
06:05 2.2 °C -1.1 °C 1020.2 hPa NNW 42.6 km/h 42.6 km/h 79 % 0.0 mm 0.0 W/m2 CLR
06:10 2.2 °C -1.1 °C 1020.2 hPa NW 31.5 km/h 31.5 km/h 79 % 0.0 mm 0.0 W/m2 CLR
06:20 2.2 °C -1.2 °C 1020.2 hPa North 48.1 km/h 48.1 km/h 78 % 0.0 mm 0.0 W/m2 CLR
06:25 2.2 °C -1.2 °C 1020.2 hPa NW 31.5 km/h 31.5 km/h 78 % 0.0 mm 0.0 W/m2 CLR
06:30 2.2 °C -1.2 °C 1020.2 hPa NNW 57.4 km/h 57.4 km/h 78 % 0.0 mm 0.0 W/m2 CLR
06:35 2.2 °C -1.4 °C 1020.2 hPa NNW 46.3 km/h 46.3 km/h 77 % 0.0 mm 0.0 W/m2 CLR
06:40 2.2 °C -1.4 °C 1020.2 hPa North 43.4 km/h 43.4 km/h 77 % 0.0 mm 0.0 W/m2 CLR
06:45 2.2 °C -1.4 °C 1020.2 hPa North 40.7 km/h 40.7 km/h 77 % 0.0 mm 0.0 W/m2 CLR
06:50 2.2 °C -1.4 °C 1020.2 hPa North 56.3 km/h 56.3 km/h 77 % 0.0 mm 0.0 W/m2 CLR
06:55 2.2 °C -1.6 °C 1020.5 hPa NNW 48.1 km/h 48.1 km/h 76 % 0.0 mm 0.0 W/m2 CLR
07:00 2.2 °C -1.6 °C 1020.5 hPa North 46.3 km/h 46.3 km/h 76 % 0.0 mm 0.0 W/m2 CLR
07:05 2.2 °C -1.6 °C 1020.5 hPa North 44.4 km/h 44.4 km/h 76 % 0.0 mm 0.0 W/m2 CLR
07:20 2.2 °C -1.6 °C 1020.5 hPa NNW 38.9 km/h 38.9 km/h 76 % 0.0 mm 0.0 W/m2 CLR
07:25 1.7 °C -2.3 °C 1020.5 hPa North 35.2 km/h 35.2 km/h 75 % 0.0 mm 0.0 W/m2 CLR
07:30 2.2 °C -1.8 °C 1020.5 hPa NNW 45.1 km/h 45.1 km/h 75 % 0.0 mm 0.0 W/m2 CLR
07:35 1.7 °C -2.3 °C 1020.5 hPa NNW 40.7 km/h 40.7 km/h 75 % 0.0 mm 0.0 W/m2 CLR
07:40 2.2 °C -1.8 °C 1020.5 hPa North 46.3 km/h 46.3 km/h 75 % 0.0 mm 0.0 W/m2 CLR
07:45 1.7 °C -2.3 °C 1020.9 hPa NNW 37.0 km/h 37.0 km/h 75 % 0.0 mm 0.0 W/m2 CLR
07:50 1.7 °C -2.5 °C 1020.9 hPa North 40.2 km/h 40.2 km/h 74 % 0.0 mm 0.0 W/m2 CLR
08:05 1.7 °C -2.5 °C 1020.9 hPa North 46.7 km/h 46.7 km/h 74 % 0.0 mm 5.0 W/m2 OVC
08:10 1.7 °C -2.5 °C 1021.2 hPa NNW 48.1 km/h 48.1 km/h 74 % 0.0 mm 7.0 W/m2 BKN
08:15 1.7 °C -2.5 °C 1021.2 hPa NNW 41.8 km/h 41.8 km/h 74 % 0.0 mm 9.0 W/m2 BKN
08:20 1.7 °C -2.5 °C 1020.9 hPa NNW 40.7 km/h 40.7 km/h 74 % 0.0 mm 11.0 W/m2 BKN
08:35 1.7 °C -2.7 °C 1021.2 hPa North 42.6 km/h 42.6 km/h 73 % 0.0 mm 19.0 W/m2 BKN
08:41 1.7 °C -2.8 °C 1021.2 hPa NNW 44.4 km/h 44.4 km/h 72 % 0.0 mm 28.0 W/m2 BKN
08:51 1.7 °C -2.8 °C 1021.2 hPa NNW 44.4 km/h 44.4 km/h 72 % 0.0 mm 42.0 W/m2 SCT
09:01 1.7 °C -3.1 °C 1021.2 hPa NW 40.7 km/h 40.7 km/h 71 % 0.0 mm 72.0 W/m2 FEW
09:06 2.2 °C -2.7 °C 1021.6 hPa NNW 44.4 km/h 44.4 km/h 70 % 0.0 mm 72.0 W/m2 SCT
09:11 2.2 °C -2.7 °C 1021.6 hPa NNW 44.4 km/h 44.4 km/h 70 % 0.0 mm 91.0 W/m2 FEW
09:16 2.2 °C -2.9 °C 1021.6 hPa North 35.2 km/h 35.2 km/h 69 % 0.0 mm 95.0 W/m2 CLR
09:31 2.2 °C -3.1 °C 1021.6 hPa North 53.7 km/h 53.7 km/h 68 % 0.0 mm 155.0 W/m2 CLR
09:36 2.2 °C -3.3 °C 1021.6 hPa NNW 40.7 km/h 40.7 km/h 67 % 0.0 mm 142.0 W/m2 CLR
09:41 2.2 °C -3.3 °C 1021.6 hPa North 38.9 km/h 38.9 km/h 67 % 0.0 mm 183.0 W/m2 CLR
09:46 2.2 °C -3.5 °C 1021.2 hPa NW 42.6 km/h 42.6 km/h 66 % 0.0 mm 197.0 W/m2 CLR
09:51 2.8 °C -3.2 °C 1021.2 hPa North 46.7 km/h 46.7 km/h 65 % 0.0 mm 142.0 W/m2 CLR
10:06 2.8 °C -3.6 °C 1021.2 hPa NNW 55.5 km/h 55.5 km/h 63 % 0.0 mm 251.0 W/m2 CLR
10:11 2.8 °C -3.8 °C 1021.2 hPa NNW 48.1 km/h 48.1 km/h 62 % 0.0 mm 264.0 W/m2 CLR
10:16 3.3 °C -3.5 °C 1021.2 hPa North 62.9 km/h 62.9 km/h 61 % 0.0 mm 274.0 W/m2 CLR
10:21 3.3 °C -3.5 °C 1021.2 hPa NNW 44.4 km/h 44.4 km/h 61 % 0.0 mm 285.0 W/m2 CLR
10:26 3.3 °C -3.9 °C 1020.9 hPa North 45.1 km/h 45.1 km/h 59 % 0.0 mm 297.0 W/m2 CLR
10:31 3.3 °C -4.2 °C 1020.9 hPa NNW 55.5 km/h 55.5 km/h 58 % 0.0 mm 308.0 W/m2 CLR
10:41 3.3 °C -4.4 °C 1021.2 hPa North 40.7 km/h 40.7 km/h 57 % 0.0 mm 325.0 W/m2 CLR
10:51 3.9 °C -4.3 °C 1021.6 hPa North 53.7 km/h 53.7 km/h 55 % 0.0 mm 343.0 W/m2 CLR
10:56 3.9 °C -4.3 °C 1021.6 hPa NW 50.0 km/h 50.0 km/h 55 % 0.0 mm 352.0 W/m2 CLR
11:06 4.4 °C -4.1 °C 1021.6 hPa North 46.7 km/h 46.7 km/h 54 % 0.0 mm 366.0 W/m2 CLR
11:11 4.4 °C -4.1 °C 1021.6 hPa NNW 38.6 km/h 38.6 km/h 54 % 0.0 mm 373.0 W/m2 CLR
11:16 4.4 °C -4.3 °C 1021.6 hPa North 41.8 km/h 41.8 km/h 53 % 0.0 mm 380.0 W/m2 CLR
11:21 4.4 °C -4.1 °C 1021.6 hPa NW 43.4 km/h 43.4 km/h 54 % 0.0 mm 385.0 W/m2 CLR
11:26 4.4 °C -4.6 °C 1021.9 hPa North 42.6 km/h 42.6 km/h 52 % 0.0 mm 394.0 W/m2 CLR
11:31 4.4 °C -4.6 °C 1021.6 hPa North 42.6 km/h 42.6 km/h 52 % 0.0 mm 399.0 W/m2 CLR
11:41 5.0 °C -4.3 °C 1021.6 hPa North 48.1 km/h 48.1 km/h 51 % 0.0 mm 411.0 W/m2 CLR
11:46 5.0 °C -4.3 °C 1021.6 hPa North 51.8 km/h 51.8 km/h 51 % 0.0 mm 415.0 W/m2 CLR
11:51 5.0 °C -4.6 °C 1021.6 hPa North 55.5 km/h 55.5 km/h 50 % 0.0 mm 422.0 W/m2 CLR
11:56 5.0 °C -4.6 °C 1021.2 hPa North 45.1 km/h 45.1 km/h 50 % 0.0 mm 427.0 W/m2 CLR
12:06 5.6 °C -4.1 °C 1021.6 hPa North 48.1 km/h 48.1 km/h 50 % 0.0 mm 431.0 W/m2 CLR
12:16 5.6 °C -4.3 °C 1021.6 hPa NNE 51.8 km/h 51.8 km/h 49 % 0.0 mm 441.0 W/m2 CLR
12:21 5.6 °C -4.6 °C 1021.2 hPa NNW 51.8 km/h 51.8 km/h 48 % 0.0 mm 445.0 W/m2 CLR
12:26 5.6 °C -4.3 °C 1021.2 hPa North 55.5 km/h 55.5 km/h 49 % 0.0 mm 446.0 W/m2 CLR
12:31 5.6 °C -4.3 °C 1021.2 hPa North 51.8 km/h 51.8 km/h 49 % 0.0 mm 446.0 W/m2 CLR
12:36 5.6 °C -4.6 °C 1021.2 hPa North 44.4 km/h 44.4 km/h 48 % 0.0 mm 446.0 W/m2 CLR
12:41 5.6 °C -4.6 °C 1021.2 hPa NNW 46.7 km/h 46.7 km/h 48 % 0.0 mm 446.0 W/m2 CLR
12:46 5.6 °C -4.6 °C 1021.2 hPa NNE 55.5 km/h 55.5 km/h 48 % 0.0 mm 446.0 W/m2 CLR
12:51 6.1 °C -4.1 °C 1021.2 hPa NNW 53.7 km/h 53.7 km/h 48 % 0.0 mm 450.0 W/m2 CLR
12:56 6.1 °C -4.1 °C 1021.2 hPa North 43.4 km/h 43.4 km/h 48 % 0.0 mm 445.0 W/m2 CLR
13:06 6.1 °C -4.7 °C 1020.9 hPa North 48.1 km/h 48.1 km/h 46 % 0.0 mm 445.0 W/m2 CLR
13:16 6.1 °C -4.7 °C 1020.5 hPa North 46.3 km/h 46.3 km/h 46 % 0.0 mm 443.0 W/m2 CLR
13:21 6.7 °C -4.4 °C 1020.5 hPa North 49.9 km/h 49.9 km/h 45 % 0.0 mm 439.0 W/m2 CLR
13:22 6.7 °C -4.4 °C 1020.5 hPa North 48.1 km/h 48.1 km/h 45 % 0.0 mm 441.0 W/m2 CLR
13:32 6.7 °C -4.4 °C 1020.5 hPa NNE 55.5 km/h 55.5 km/h 45 % 0.0 mm 434.0 W/m2 CLR
13:37 6.7 °C -4.4 °C 1020.2 hPa NNE 51.8 km/h 51.8 km/h 45 % 0.0 mm 429.0 W/m2 CLR
13:42 6.7 °C -4.4 °C 1020.2 hPa North 55.5 km/h 55.5 km/h 45 % 0.0 mm 424.0 W/m2 CLR
13:47 6.7 °C -4.7 °C 1020.2 hPa North 61.1 km/h 61.1 km/h 44 % 0.0 mm 422.0 W/m2 CLR
13:52 7.2 °C -4.2 °C 1019.9 hPa NNW 42.6 km/h 42.6 km/h 44 % 0.0 mm 415.0 W/m2 CLR
13:57 7.2 °C -4.2 °C 1020.2 hPa North 46.3 km/h 46.3 km/h 44 % 0.0 mm 408.0 W/m2 CLR
14:07 7.2 °C -4.6 °C 1020.2 hPa NNW 44.4 km/h 44.4 km/h 43 % 0.0 mm 397.0 W/m2 CLR
14:12 7.2 °C -4.6 °C 1019.9 hPa NNW 42.6 km/h 42.6 km/h 43 % 0.0 mm 392.0 W/m2 CLR
14:17 7.8 °C -4.1 °C 1019.9 hPa NNW 48.3 km/h 48.3 km/h 43 % 0.0 mm 387.0 W/m2 CLR
14:22 7.8 °C -4.1 °C 1019.9 hPa North 48.1 km/h 48.1 km/h 43 % 0.0 mm 378.0 W/m2 CLR
14:27 7.8 °C -4.1 °C 1019.9 hPa NW 51.8 km/h 51.8 km/h 43 % 0.0 mm 367.0 W/m2 CLR
14:32 7.8 °C -4.3 °C 1019.9 hPa NNW 42.6 km/h 42.6 km/h 42 % 0.0 mm 366.0 W/m2 CLR
14:48 8.3 °C -5.9 °C 1019.5 hPa NNW 45.1 km/h 45.1 km/h 36 % 0.0 mm 341.0 W/m2 CLR
15:03 7.8 °C -3.7 °C 1019.5 hPa NNW 35.4 km/h 35.4 km/h 44 % 0.0 mm 311.0 W/m2 CLR
15:08 7.8 °C -3.7 °C 1019.5 hPa NNW 31.5 km/h 31.5 km/h 44 % 0.0 mm 304.0 W/m2 CLR
15:13 7.8 °C -3.7 °C 1019.5 hPa NNW 48.1 km/h 48.1 km/h 44 % 0.0 mm 297.0 W/m2 CLR
15:18 7.8 °C -3.7 °C 1019.2 hPa NNW 50.0 km/h 50.0 km/h 44 % 0.0 mm 287.0 W/m2 CLR
15:23 7.2 °C -4.2 °C 1019.5 hPa North 48.1 km/h 48.1 km/h 44 % 0.0 mm 274.0 W/m2 CLR
15:28 7.2 °C -3.9 °C 1019.2 hPa NW 42.6 km/h 42.6 km/h 45 % 0.0 mm 262.0 W/m2 CLR
15:43 7.2 °C -3.9 °C 1019.5 hPa North 46.3 km/h 46.3 km/h 45 % 0.0 mm 218.0 W/m2 CLR
15:48 7.2 °C -3.7 °C 1019.5 hPa NNW 37.0 km/h 37.0 km/h 46 % 0.0 mm 207.0 W/m2 CLR
15:58 6.7 °C -4.2 °C 1019.5 hPa North 42.6 km/h 42.6 km/h 46 % 0.0 mm 181.0 W/m2 CLR
16:13 6.7 °C -4.2 °C 1019.2 hPa NNW 55.5 km/h 55.5 km/h 46 % 0.0 mm 137.0 W/m2 CLR
16:18 6.1 °C -4.7 °C 1019.2 hPa NW 51.8 km/h 51.8 km/h 46 % 0.0 mm 125.0 W/m2 CLR
16:23 6.1 °C -4.7 °C 1019.5 hPa NNW 51.8 km/h 51.8 km/h 46 % 0.0 mm 109.0 W/m2 CLR
16:28 6.1 °C -4.4 °C 1019.5 hPa NNW 40.7 km/h 40.7 km/h 47 % 0.0 mm 97.0 W/m2 CLR
16:33 6.1 °C -4.4 °C 1019.5 hPa WNW 35.2 km/h 35.2 km/h 47 % 0.0 mm 86.0 W/m2 CLR
16:38 6.1 °C -4.4 °C 1019.5 hPa WNW 43.4 km/h 43.4 km/h 47 % 0.0 mm 60.0 W/m2 SCT
16:43 6.1 °C -4.4 °C 1019.5 hPa NW 37.0 km/h 37.0 km/h 47 % 0.0 mm 47.0 W/m2 SCT
16:48 5.6 °C -4.6 °C 1019.5 hPa NW 29.0 km/h 29.0 km/h 48 % 0.0 mm 46.0 W/m2 SCT
16:53 5.6 °C -4.9 °C 1019.5 hPa North 40.2 km/h 40.2 km/h 47 % 0.0 mm 39.0 W/m2 BKN
17:03 5.6 °C -4.6 °C 1019.5 hPa NNW 24.1 km/h 24.1 km/h 48 % 0.0 mm 23.0 W/m2 BKN
17:08 5.6 °C -4.6 °C 1019.5 hPa North 44.4 km/h 44.4 km/h 48 % 0.0 mm 18.0 W/m2 BKN
17:13 5.6 °C -4.6 °C 1019.9 hPa NW 37.0 km/h 37.0 km/h 48 % 0.0 mm 14.0 W/m2 BKN
17:18 5.0 °C -4.8 °C 1019.9 hPa NW 42.6 km/h 42.6 km/h 49 % 0.0 mm 12.0 W/m2 BKN
17:28 5.0 °C -4.1 °C 1019.9 hPa NNW 40.7 km/h 40.7 km/h 52 % 0.0 mm 7.0 W/m2 BKN
17:33 5.0 °C -3.8 °C 1019.9 hPa NW 25.9 km/h 25.9 km/h 53 % 0.0 mm 5.0 W/m2 OVC
17:38 4.4 °C -4.3 °C 1019.9 hPa NNW 44.4 km/h 44.4 km/h 53 % 0.0 mm 0.0 W/m2 OVC
17:43 4.4 °C -4.3 °C 1020.2 hPa NW 35.2 km/h 35.2 km/h 53 % 0.0 mm 0.0 W/m2 CLR
17:53 4.4 °C -4.1 °C 1020.2 hPa NW 38.9 km/h 38.9 km/h 54 % 0.0 mm 0.0 W/m2 CLR
17:58 4.4 °C -4.3 °C 1020.2 hPa North 35.2 km/h 35.2 km/h 53 % 0.0 mm 0.0 W/m2 CLR
18:03 3.9 °C -4.6 °C 1020.5 hPa NW 40.7 km/h 40.7 km/h 54 % 0.0 mm 0.0 W/m2 CLR
18:08 3.9 °C -4.6 °C 1020.5 hPa NNW 29.6 km/h 29.6 km/h 54 % 0.0 mm 0.0 W/m2 CLR
18:14 3.9 °C -4.6 °C 1020.5 hPa NNW 40.7 km/h 40.7 km/h 54 % 0.0 mm 0.0 W/m2 CLR
18:19 3.9 °C -4.6 °C 1020.9 hPa NW 27.8 km/h 27.8 km/h 54 % 0.0 mm 0.0 W/m2 CLR
18:24 3.9 °C -4.6 °C 1020.9 hPa NW 27.8 km/h 27.8 km/h 54 % 0.0 mm 0.0 W/m2 CLR
18:29 3.9 °C -4.6 °C 1021.2 hPa NW 33.8 km/h 33.8 km/h 54 % 0.0 mm 0.0 W/m2 CLR
18:39 3.9 °C -4.3 °C 1021.2 hPa NNW 42.6 km/h 42.6 km/h 55 % 0.0 mm 0.0 W/m2 CLR
18:44 3.3 °C -4.8 °C 1021.2 hPa NNW 31.5 km/h 31.5 km/h 55 % 0.0 mm 0.0 W/m2 CLR
18:49 3.3 °C -4.6 °C 1021.2 hPa NW 38.9 km/h 38.9 km/h 56 % 0.0 mm 0.0 W/m2 CLR
18:54 3.3 °C -4.6 °C 1021.2 hPa NNW 37.0 km/h 37.0 km/h 56 % 0.0 mm 0.0 W/m2 CLR
18:59 3.3 °C -4.4 °C 1021.2 hPa NNW 31.5 km/h 31.5 km/h 57 % 0.0 mm 0.0 W/m2 CLR
19:04 3.3 °C -4.2 °C 1021.6 hPa NNW 27.8 km/h 27.8 km/h 58 % 0.0 mm 0.0 W/m2 CLR
19:09 3.3 °C -4.2 °C 1021.6 hPa NW 30.6 km/h 30.6 km/h 58 % 0.0 mm 0.0 W/m2 CLR
19:14 3.3 °C -4.2 °C 1021.6 hPa NNW 40.7 km/h 40.7 km/h 58 % 0.0 mm 0.0 W/m2 CLR
19:19 3.3 °C -3.9 °C 1021.9 hPa NNW 38.9 km/h 38.9 km/h 59 % 0.0 mm 0.0 W/m2 CLR
19:24 2.8 °C -4.4 °C 1022.2 hPa NNW 31.5 km/h 31.5 km/h 59 % 0.0 mm 0.0 W/m2 CLR
19:29 2.8 °C -4.4 °C 1022.2 hPa North 43.4 km/h 43.4 km/h 59 % 0.0 mm 0.0 W/m2 CLR
19:39 2.8 °C -4.2 °C 1022.2 hPa NW 31.5 km/h 31.5 km/h 60 % 0.0 mm 0.0 W/m2 CLR
19:44 2.8 °C -4.2 °C 1022.2 hPa North 40.7 km/h 40.7 km/h 60 % 0.0 mm 0.0 W/m2 CLR
19:49 2.8 °C -4.2 °C 1022.6 hPa NNW 33.3 km/h 33.3 km/h 60 % 0.0 mm 0.0 W/m2 CLR
19:54 2.8 °C -4.2 °C 1022.6 hPa NW 37.0 km/h 37.0 km/h 60 % 0.0 mm 0.0 W/m2 CLR
19:59 2.8 °C -4.2 °C 1022.6 hPa NNW 29.6 km/h 29.6 km/h 60 % 0.0 mm 0.0 W/m2 CLR
20:04 2.8 °C -4.2 °C 1022.9 hPa NNW 27.8 km/h 27.8 km/h 60 % 0.0 mm 0.0 W/m2 CLR
20:09 2.8 °C -4.2 °C 1022.9 hPa North 33.3 km/h 33.3 km/h 60 % 0.0 mm 0.0 W/m2 CLR
20:14 2.8 °C -4.2 °C 1022.9 hPa NNW 33.3 km/h 33.3 km/h 60 % 0.0 mm 0.0 W/m2 CLR
20:24 2.2 °C -5.0 °C 1023.2 hPa NNW 29.6 km/h 29.6 km/h 59 % 0.0 mm 0.0 W/m2 CLR
20:29 2.2 °C -5.0 °C 1023.2 hPa North 38.9 km/h 38.9 km/h 59 % 0.0 mm 0.0 W/m2 CLR
20:34 2.2 °C -5.0 °C 1023.2 hPa North 25.9 km/h 25.9 km/h 59 % 0.0 mm 0.0 W/m2 CLR
20:39 2.8 °C -4.7 °C 1023.2 hPa NNW 51.8 km/h 51.8 km/h 58 % 0.0 mm 0.0 W/m2 CLR
20:44 2.8 °C -4.9 °C 1023.6 hPa NNW 35.2 km/h 35.2 km/h 57 % 0.0 mm 0.0 W/m2 CLR
20:49 2.8 °C -4.9 °C 1023.6 hPa NNW 31.5 km/h 31.5 km/h 57 % 0.0 mm 0.0 W/m2 CLR
20:54 2.2 °C -5.4 °C 1023.6 hPa NNW 33.3 km/h 33.3 km/h 57 % 0.0 mm 0.0 W/m2 CLR
20:59 2.2 °C -5.4 °C 1023.6 hPa NNW 31.5 km/h 31.5 km/h 57 % 0.0 mm 0.0 W/m2 CLR
21:04 2.2 °C -5.4 °C 1023.6 hPa NNW 31.5 km/h 31.5 km/h 57 % 0.0 mm 0.0 W/m2 CLR
21:14 2.2 °C -5.2 °C 1023.6 hPa North 40.7 km/h 40.7 km/h 58 % 0.0 mm 0.0 W/m2 CLR
21:19 2.2 °C -5.2 °C 1023.6 hPa NNW 33.3 km/h 33.3 km/h 58 % 0.0 mm 0.0 W/m2 CLR
21:24 2.2 °C -5.2 °C 1023.6 hPa NNW 33.3 km/h 33.3 km/h 58 % 0.0 mm 0.0 W/m2 CLR
21:29 2.2 °C -5.2 °C 1023.6 hPa NNW 24.1 km/h 24.1 km/h 58 % 0.0 mm 0.0 W/m2 CLR
21:39 1.7 °C -5.5 °C 1023.9 hPa NNW 20.4 km/h 20.4 km/h 59 % 0.0 mm 0.0 W/m2 CLR
21:44 1.7 °C -5.3 °C 1023.9 hPa NNW 29.6 km/h 29.6 km/h 60 % 0.0 mm 0.0 W/m2 CLR
21:49 1.7 °C -5.3 °C 1023.9 hPa NNW 31.5 km/h 31.5 km/h 60 % 0.0 mm 0.0 W/m2 CLR
21:54 1.7 °C -5.1 °C 1023.9 hPa NNW 42.6 km/h 42.6 km/h 61 % 0.0 mm 0.0 W/m2 CLR
21:59 1.7 °C -4.8 °C 1023.9 hPa NW 38.9 km/h 38.9 km/h 62 % 0.0 mm 0.0 W/m2 CLR
22:04 1.7 °C -4.8 °C 1023.9 hPa NNW 48.1 km/h 48.1 km/h 62 % 0.0 mm 0.0 W/m2 CLR
22:09 1.7 °C -4.8 °C 1023.9 hPa North 33.3 km/h 33.3 km/h 62 % 0.0 mm 0.0 W/m2 CLR
22:14 1.7 °C -4.6 °C 1024.3 hPa NNW 33.3 km/h 33.3 km/h 63 % 0.0 mm 0.0 W/m2 CLR
22:24 1.7 °C -4.4 °C 1024.3 hPa North 33.8 km/h 33.8 km/h 64 % 0.0 mm 0.0 W/m2 CLR
22:29 1.7 °C -4.2 °C 1024.3 hPa NNW 35.2 km/h 35.2 km/h 65 % 0.0 mm 0.0 W/m2 CLR
22:34 1.7 °C -4.2 °C 1024.3 hPa NNW 33.3 km/h 33.3 km/h 65 % 0.0 mm 0.0 W/m2 CLR
22:44 1.7 °C -4.2 °C 1024.3 hPa NNW 35.2 km/h 35.2 km/h 65 % 0.0 mm 0.0 W/m2 CLR
22:49 1.7 °C -4.0 °C 1024.3 hPa NW 24.1 km/h 24.1 km/h 66 % 0.0 mm 0.0 W/m2 CLR
22:59 1.7 °C -4.0 °C 1024.3 hPa NNW 35.2 km/h 35.2 km/h 66 % 0.0 mm 0.0 W/m2 CLR
23:09 1.7 °C -4.0 °C 1024.3 hPa WNW 25.9 km/h 25.9 km/h 66 % 0.0 mm 0.0 W/m2 CLR
23:19 1.7 °C -4.0 °C 1024.3 hPa NW 40.7 km/h 40.7 km/h 66 % 0.0 mm 0.0 W/m2 CLR
23:34 1.7 °C -4.0 °C 1024.6 hPa NW 27.8 km/h 27.8 km/h 66 % 0.0 mm 0.0 W/m2 CLR
23:39 1.7 °C -4.0 °C 1024.9 hPa NW 24.1 km/h 24.1 km/h 66 % 0.0 mm 0.0 W/m2 CLR
23:44 1.7 °C -4.0 °C 1024.9 hPa NW 25.9 km/h 25.9 km/h 66 % 0.0 mm 0.0 W/m2 CLR
23:49 1.1 °C -4.6 °C 1025.3 hPa NW 25.9 km/h 25.9 km/h 66 % 0.0 mm 0.0 W/m2 CLR
Lo Temps de Massalio
Compliments of Weather Underground - 1 mb